Airfield :
LOGIN :

Register | Disclaimer

   EN    FR    IT 

 










Legend :    VFR   Marginal VFR   IFR   Intensive IFR   Very Intensive IFR
Visi :
Ceiling :
>= 8 km
>= 3000ft
5 to 8 km
1000 to 3000 ft
1500m to 5 km
500 to 1000 ft
800 to 1500m
200 to 500 ft
< 800m
< 200 ft
Symbols :   Thunderstorms  Fog  Heavy snow  Heavy precipitations  Wind > 20 kt
SIGMETs :     Misc.  Thunderstorms  Icing  Turbulence  Mountain Waves  Volcanic Ashes






- Airport Elevation : 622 ft
- IATA code : BRS


EGGD - Bristol Int.

CURRENT METAR :
  • 231250Z 12009KT 9999 4000SE VCFG FEW024 11/09 Q1011

EXPIRED METARs :
  • 231220Z 12009KT 9999 4000SE VCFG FEW024 11/09 Q1012
  • 231150Z 10006KT 9999 3000E VCFG FEW024 10/09 Q1012
  • 231120Z 11006KT 9999 1500NE VCFG FEW002 SCT023 10/09 Q1013
  • 231050Z 11007KT 1200 R27/1200 BR SCT001 SCT024 09/08 Q1013
  • 231020Z 10008KT 0600 R27/0350 FG FEW000 BKN002 08/08 Q1014

TAF AMD TAF EGGD
Valid from the 23 at 12:00 until the 24 at 12:00 UTC


231158Z 2312/2412 13006KT 6000 BKN002
BECMG 2312/2314 9999 FEW007
PROB30
TEMPO 2312/2313 3000 BR BKN001
TEMPO 2314/2324 9000 BKN007
PROB40
TEMPO 2316/2324 RA
BECMG 2400/2403 4000 BR BKN003
PROB40 2402/2406 0300 FG BKN001
BECMG 2406/2409 9999 NSW BKN008
TEMPO 2409/2412 6000 RA BKN004
ATIS : +44 1275 473 666



MET'MAP, your aeronautical weather chart ! - Copyright ORBIFLY December 2007 - Disclaimer

ORBIFLY MET'MAP TEAM :

Programming & Development : Alexandra Zaïnal
Concept & Development : Baudouin d'Aumeries
Co-Development & Prog : Marc-Olivier Méhu
Technical & hardware support : Manuel Goepfert

Contact : metmap@orbifly.com




SOURCES & CREDITS :

   NOAA